Time;durP1;ratioP1;P1;durP2;ratioP2;P2;SDS_P1;SDS_P2;PMS_P1;PMS_P2;Temp;Humidity;BMP_temperature;BMP_pressure;BME280_temperature;BME280_humidity;BME280_pressure;Samples;Min_cycle;Max_cycle;Signal;HPM_P1;HPM_P2
2022/05/27 00:00:17;;;;;;;;;3.00;1.00;;;;;17.91;83.27;102245.13;5079581;27;45330;-83
2022/05/27 00:02:43;;;;;;;;;1.00;1.00;;;;;17.89;83.09;102228.44;5078766;28;45576;-82
2022/05/27 00:05:09;;;;;;;;;2.75;1.00;;;;;17.89;83.36;102223.19;5079029;27;45510;-82
2022/05/27 00:07:35;;;;;;;;;1.00;1.00;;;;;17.89;83.16;102228.44;5079804;28;45394;-82
2022/05/27 00:10:01;;;;;;;;;1.00;1.00;;;;;17.87;83.83;102227.47;5086050;28;45336;-82
2022/05/27 00:12:26;;;;;;;;;1.50;1.00;;;;;17.84;84.20;102218.63;5082187;28;45453;-82
2022/05/27 00:14:52;;;;;;;;;1.50;1.00;;;;;17.78;84.66;102227.16;5079527;28;45189;-82
2022/05/27 00:17:18;;;;;;;;;0.75;0.75;;;;;17.77;84.96;102231.50;5079089;27;45244;-82
2022/05/27 00:19:43;;;;;;;;;1.00;1.00;;;;;17.77;85.30;102226.25;5078886;28;45176;-82
2022/05/27 00:22:09;;;;;;;;;1.00;1.00;;;;;17.78;85.28;102228.06;5078728;27;46047;-82
2022/05/27 00:24:36;;;;;;;;;1.00;1.00;;;;;17.79;85.34;102221.97;5079338;28;45259;-82
2022/05/27 00:27:02;;;;;;;;;1.00;0.50;;;;;17.79;85.26;102218.44;5077478;27;45390;-82
2022/05/27 00:29:28;;;;;;;;;0.25;0.25;;;;;17.77;85.76;102209.63;5060677;27;45482;-82
2022/05/27 00:31:54;;;;;;;;;1.00;1.00;;;;;17.77;85.77;102215.78;5078350;28;45291;-82
2022/05/27 00:34:19;;;;;;;;;2.00;1.00;;;;;17.71;86.20;102204.19;5078673;27;45477;-82
2022/05/27 00:36:45;;;;;;;;;1.25;1.00;;;;;17.67;87.01;102204.88;5079138;27;45323;-82
2022/05/27 00:39:11;;;;;;;;;1.50;0.50;;;;;17.60;87.21;102209.91;5063432;28;45638;-82
2022/05/27 00:41:36;;;;;;;;;1.00;1.00;;;;;17.55;88.26;102207.94;5084016;27;46159;-82
2022/05/27 00:44:02;;;;;;;;;2.00;1.00;;;;;17.49;88.77;102198.13;5063785;27;45300;-81
2022/05/27 00:46:32;;;;;;;;;2.00;1.00;;;;;17.44;89.03;102200.56;5078731;28;45282;-82
2022/05/27 00:49:23;;;;;;;;;2.50;1.00;;;;;17.44;89.09;102207.53;5077249;28;45363;-82
2022/05/27 00:52:01;;;;;;;;;1.25;1.00;;;;;17.42;89.57;102206.59;5078134;28;45680;-82
2022/05/27 00:54:27;;;;;;;;;1.75;1.00;;;;;17.41;89.85;102210.91;5078494;28;46072;-82
2022/05/27 00:57:05;;;;;;;;;1.00;1.00;;;;;17.41;89.93;102202.19;5078339;28;45350;-82
2022/05/27 00:59:34;;;;;;;;;2.00;1.75;;;;;17.38;90.42;102208.19;5078790;28;45240;-83
2022/05/27 01:01:59;;;;;;;;;0.25;0.25;;;;;17.34;90.61;102201.03;5078093;27;45362;-82
2022/05/27 01:04:28;;;;;;;;;1.00;1.00;;;;;17.32;91.31;102194.84;5080764;27;45265;-82
2022/05/27 01:06:54;;;;;;;;;2.50;1.00;;;;;17.25;92.24;102198.06;5084118;28;45304;-82
2022/05/27 01:09:21;;;;;;;;;1.00;1.00;;;;;17.21;91.69;102197.06;5079937;28;45493;-82
2022/05/27 01:11:46;;;;;;;;;0.00;0.00;;;;;17.20;92.13;102197.88;5078362;27;45508;-82
2022/05/27 01:14:15;;;;;;;;;0.50;0.50;;;;;17.21;92.44;102196.16;5077845;28;45375;-83
2022/05/27 01:16:55;;;;;;;;;1.00;1.00;;;;;17.18;93.16;102192.56;5078030;27;45527;-82
2022/05/27 01:22:55;;;;;;;;;0.50;0.50;;;;;17.15;94.38;102187.25;5077656;27;45349;-82
2022/05/27 01:25:29;;;;;;;;;1.00;1.00;;;;;17.15;94.76;102186.31;5076518;27;45657;-82
2022/05/27 01:28:32;;;;;;;;;1.00;1.00;;;;;17.13;94.88;102190.59;5077547;27;45289;-83
2022/05/27 01:31:16;;;;;;;;;4.00;1.75;;;;;17.11;95.41;102189.69;5060320;28;45633;-82
2022/05/27 01:34:14;;;;;;;;;2.50;1.00;;;;;17.11;95.95;102189.69;5079334;28;45614;-82
2022/05/27 01:37:05;;;;;;;;;1.00;1.00;;;;;17.10;95.91;102188.75;5079891;27;45337;-82
2022/05/27 01:39:42;;;;;;;;;2.75;1.25;;;;;17.09;96.32;102186.09;5060203;28;45364;-82
2022/05/27 01:42:25;;;;;;;;;2.00;1.00;;;;;17.06;96.78;102183.34;5077913;27;45319;-82
2022/05/27 01:44:59;;;;;;;;;1.75;1.50;;;;;17.05;97.48;102192.94;5077307;28;46424;-82
2022/05/27 01:47:45;;;;;;;;;0.00;0.00;;;;;16.99;98.04;102183.13;5077536;27;45730;-82
2022/05/27 01:50:18;;;;;;;;;1.00;1.00;;;;;17.00;98.08;102195.38;5077535;28;45469;-82
2022/05/27 01:52:47;;;;;;;;;2.50;1.00;;;;;17.01;99.69;102189.28;5077501;27;45471;-82
2022/05/27 01:55:40;;;;;;;;;3.00;2.00;;;;;16.97;99.19;102184.78;5077138;28;45488;-82
2022/05/27 01:58:20;;;;;;;;;2.00;1.25;;;;;16.91;99.35;102192.31;5075506;28;45236;-82
2022/05/27 02:00:49;;;;;;;;;1.00;1.00;;;;;16.84;99.69;102188.59;5077298;28;45359;-82
2022/05/27 02:03:21;;;;;;;;;1.25;1.25;;;;;16.82;100.00;102184.09;5084180;27;45300;-82
2022/05/27 02:05:51;;;;;;;;;4.25;2.00;;;;;16.78;100.00;102196.16;5079225;28;46493;-82
2022/05/27 02:08:21;;;;;;;;;2.25;2.00;;;;;16.76;100.00;102196.94;5077512;28;45586;-82
2022/05/27 02:10:49;;;;;;;;;0.75;0.75;;;;;16.78;100.00;102190.94;5077092;28;45420;-81
2022/05/27 02:13:19;;;;;;;;;2.25;2.25;;;;;16.78;100.00;102183.09;5077222;28;45643;-82
2022/05/27 02:15:49;;;;;;;;;2.00;2.00;;;;;16.81;100.00;102185.84;5076835;27;45567;-82
2022/05/27 02:18:27;;;;;;;;;3.00;2.00;;;;;16.86;100.00;102189.50;5077036;28;45402;-82
2022/05/27 02:21:08;;;;;;;;;3.00;1.25;;;;;16.90;100.00;102189.66;5076867;28;45452;-82
2022/05/27 02:23:39;;;;;;;;;1.00;1.00;;;;;16.88;100.00;102184.38;5077646;28;45248;-82
2022/05/27 02:26:11;;;;;;;;;1.75;1.75;;;;;16.91;99.88;102188.81;5058638;28;47174;-82
2022/05/27 02:28:41;;;;;;;;;2.00;1.00;;;;;16.90;100.00;102179.19;5076882;28;45763;-81
2022/05/27 02:31:16;;;;;;;;;4.75;2.00;;;;;16.91;100.00;102194.06;5082450;28;45254;-82
2022/05/27 02:36:50;;;;;;;;;2.25;2.00;;;;;16.89;100.00;102190.47;5076546;27;45737;-82
2022/05/27 02:39:16;;;;;;;;;3.00;2.00;;;;;16.86;99.11;102186.03;5058295;28;45832;-82
2022/05/27 02:41:59;;;;;;;;;1.75;1.75;;;;;16.82;99.33;102187.63;5076672;28;45430;-82
2022/05/27 02:44:51;;;;;;;;;3.25;2.25;;;;;16.75;100.00;102185.56;5077228;27;45410;-82
2022/05/27 02:47:36;;;;;;;;;3.50;2.75;;;;;16.71;100.00;102181.06;5058102;28;46209;-82
2022/05/27 02:50:12;;;;;;;;;1.50;1.50;;;;;16.68;100.00;102184.41;5077032;27;45683;-82
2022/05/27 02:52:56;;;;;;;;;2.50;2.00;;;;;16.73;99.96;102181.09;5076599;28;45243;-82
2022/05/27 02:55:50;;;;;;;;;1.75;0.75;;;;;16.72;100.00;102188.06;5077311;28;45546;-82
2022/05/27 02:58:16;;;;;;;;;1.75;1.75;;;;;16.72;99.82;102190.69;5077800;27;45420;-83
2022/05/27 03:00:44;;;;;;;;;5.00;2.00;;;;;16.70;100.00;102190.59;5084546;28;45280;-82
2022/05/27 03:03:09;;;;;;;;;2.25;2.25;;;;;16.74;100.00;102191.63;5077165;27;45240;-82
2022/05/27 03:06:16;;;;;;;;;3.00;1.00;;;;;16.80;100.00;102190.97;5077064;28;45613;-83
2022/05/27 03:09:03;;;;;;;;;1.75;1.75;;;;;16.80;100.00;102190.97;5076219;28;46020;-82
2022/05/27 03:11:48;;;;;;;;;2.75;2.00;;;;;16.76;100.00;102186.47;5077244;28;45842;-83
2022/05/27 03:14:25;;;;;;;;;4.00;2.00;;;;;16.79;100.00;102197.06;5079935;28;45330;-83
2022/05/27 03:17:30;;;;;;;;;2.00;2.00;;;;;16.79;100.00;102189.22;5080041;27;45189;-82
2022/05/27 03:20:16;;;;;;;;;3.00;2.00;;;;;16.77;100.00;102186.53;5079671;28;45451;-82
2022/05/27 03:23:00;;;;;;;;;2.25;2.00;;;;;16.79;100.00;102184.00;5079437;27;45676;-83
2022/05/27 03:25:38;;;;;;;;;2.50;2.00;;;;;16.81;100.00;102195.38;5079945;27;45383;-82
2022/05/27 03:28:22;;;;;;;;;4.00;2.00;;;;;16.83;100.00;102183.28;5062735;28;45603;-82
2022/05/27 03:31:25;;;;;;;;;3.00;3.00;;;;;16.83;100.00;102183.28;5085818;27;45411;-83
2022/05/27 03:34:11;;;;;;;;;0.50;0.50;;;;;16.83;100.00;102189.41;5085635;28;45331;-82
2022/05/27 03:36:51;;;;;;;;;2.00;2.00;;;;;16.84;100.00;102180.75;5080416;28;45336;-82
2022/05/27 03:39:25;;;;;;;;;3.25;2.75;;;;;16.84;100.00;102180.75;5080081;27;45452;-82
2022/05/27 03:41:56;;;;;;;;;5.75;3.25;;;;;16.85;100.00;102186.84;5079293;27;46449;-82
2022/05/27 03:44:26;;;;;;;;;3.00;3.00;;;;;16.85;100.00;102190.34;5079555;28;45233;-82
2022/05/27 03:46:53;;;;;;;;;2.00;2.00;;;;;16.83;100.00;102186.78;5061167;28;45410;-82
2022/05/27 03:49:19;;;;;;;;;2.75;2.00;;;;;16.81;99.98;102192.78;5079658;28;45339;-82
2022/05/27 03:52:08;;;;;;;;;2.25;2.25;;;;;16.78;100.00;102200.50;5079061;28;46185;-82
2022/05/27 03:54:34;;;;;;;;;3.25;3.00;;;;;16.73;99.92;102188.94;5084853;27;45615;-83
2022/05/27 03:57:00;;;;;;;;;3.00;3.00;;;;;16.71;100.00;102194.13;5084790;27;45256;-83
2022/05/27 03:59:26;;;;;;;;;2.00;2.00;;;;;16.70;100.00;102192.34;5083921;28;45517;-83
2022/05/27 04:01:54;;;;;;;;;6.00;2.75;;;;;16.62;100.00;102184.16;5060993;27;46747;-83
2022/05/27 04:04:23;;;;;;;;;2.50;2.50;;;;;16.60;100.00;102187.56;5079533;27;45860;-82
2022/05/27 04:06:49;;;;;;;;;3.75;3.75;;;;;16.62;100.00;102197.25;5079186;28;45265;-83
2022/05/27 04:09:17;;;;;;;;;5.50;3.00;;;;;16.58;100.00;102207.50;5079528;27;45326;-82
2022/05/27 04:11:43;;;;;;;;;2.75;2.00;;;;;16.52;100.00;102187.22;5078796;27;45556;-81
2022/05/27 04:14:09;;;;;;;;;3.00;3.00;;;;;16.54;100.00;102191.69;5060577;28;45833;-80
2022/05/27 04:16:35;;;;;;;;;4.50;2.75;;;;;16.55;100.00;102201.31;5079361;28;45385;-81
2022/05/27 04:19:01;;;;;;;;;4.25;4.25;;;;;16.56;100.00;102189.16;5079120;28;45292;-81
2022/05/27 04:21:27;;;;;;;;;4.00;3.00;;;;;16.58;100.00;102195.31;5078651;28;45970;-80
2022/05/27 04:23:54;;;;;;;;;3.75;2.75;;;;;16.56;100.00;102205.72;5081544;27;45240;-80
2022/05/27 04:26:20;;;;;;;;;3.25;3.00;;;;;16.55;100.00;102205.66;5086214;28;45228;-81
2022/05/27 04:28:46;;;;;;;;;4.50;3.00;;;;;16.56;100.00;102207.44;5079498;27;45520;-81
2022/05/27 04:31:12;;;;;;;;;4.75;3.50;;;;;16.60;100.00;102198.88;5078905;27;46053;-81
2022/05/27 04:33:37;;;;;;;;;6.00;4.00;;;;;16.64;100.00;102200.81;5078454;27;45399;-81
2022/05/27 04:36:04;;;;;;;;;3.75;3.75;;;;;16.65;100.00;102204.31;5078945;27;45320;-81
2022/05/27 04:38:30;;;;;;;;;3.00;3.00;;;;;16.64;100.00;102208.66;5078986;27;45513;-81
2022/05/27 04:40:56;;;;;;;;;4.50;3.50;;;;;16.63;100.00;102204.25;5078289;27;46548;-81
2022/05/27 04:43:22;;;;;;;;;5.50;3.75;;;;;16.62;100.00;102212.94;5060168;28;45293;-81
2022/05/27 04:45:48;;;;;;;;;4.50;3.50;;;;;16.62;100.00;102205.09;5060204;28;45260;-81
2022/05/27 04:48:14;;;;;;;;;3.25;3.25;;;;;16.63;100.00;102203.38;5078944;28;45300;-81
2022/05/27 04:50:40;;;;;;;;;4.75;4.75;;;;;16.64;100.00;102206.06;5081489;28;45259;-82
2022/05/27 04:53:05;;;;;;;;;5.25;4.25;;;;;16.66;100.00;102195.63;5083989;28;45347;-81
2022/05/27 04:55:34;;;;;;;;;4.25;4.25;;;;;16.71;100.00;102204.59;5081159;28;45407;-80
2022/05/27 04:58:00;;;;;;;;;8.00;5.00;;;;;16.69;100.00;102207.13;5079844;27;45560;-81
2022/05/27 05:00:35;;;;;;;;;6.00;3.75;;;;;16.70;100.00;102198.44;5077744;27;46462;-81
2022/05/27 05:03:01;;;;;;;;;5.00;5.00;;;;;16.64;100.00;102203.44;5079717;27;45350;-80
2022/05/27 05:05:30;;;;;;;;;4.25;3.50;;;;;16.63;100.00;102206.88;5078512;27;45205;-81
2022/05/27 05:08:06;;;;;;;;;5.00;5.00;;;;;16.61;100.00;102207.66;5060086;28;45278;-81
2022/05/27 05:10:33;;;;;;;;;4.50;4.50;;;;;16.63;100.00;102213.84;5060009;28;46283;-81
2022/05/27 05:12:59;;;;;;;;;4.25;3.75;;;;;16.61;100.00;102216.38;5077849;27;45269;-80
2022/05/27 05:15:26;;;;;;;;;6.00;5.75;;;;;16.55;100.00;102206.53;5078170;28;45419;-80
2022/05/27 05:17:52;;;;;;;;;7.75;5.00;;;;;16.56;100.00;102210.06;5078212;28;45314;-80
2022/05/27 05:20:22;;;;;;;;;6.50;5.75;;;;;16.56;100.00;102210.06;5078507;28;46002;-80
2022/05/27 05:22:49;;;;;;;;;7.50;7.50;;;;;16.54;100.00;102204.75;5086149;28;45284;-79
2022/05/27 05:25:15;;;;;;;;;6.00;5.75;;;;;16.54;100.00;102209.09;5078922;28;45428;-81
2022/05/27 05:27:41;;;;;;;;;11.75;10.50;;;;;16.54;100.00;102206.50;5078214;28;45442;-80
2022/05/27 05:30:12;;;;;;;;;6.75;6.00;;;;;16.58;100.00;102202.28;5059515;28;45376;-80
2022/05/27 05:32:39;;;;;;;;;13.00;11.50;;;;;16.59;100.00;102204.94;5077753;28;45347;-79
2022/05/27 05:35:06;;;;;;;;;9.25;7.25;;;;;16.64;100.00;102205.13;5077422;28;45510;-80
2022/05/27 05:37:32;;;;;;;;;10.50;7.00;;;;;16.65;100.00;102205.22;5078281;28;45470;-80
2022/05/27 05:39:57;;;;;;;;;11.75;10.00;;;;;16.67;100.00;102193.13;5077393;28;45256;-80
2022/05/27 05:42:23;;;;;;;;;10.00;8.00;;;;;16.73;100.00;102205.56;5077616;27;45289;-80
2022/05/27 05:44:50;;;;;;;;;10.00;9.75;;;;;16.73;100.00;102200.31;5077547;28;45344;-81
2022/05/27 05:47:15;;;;;;;;;13.75;12.50;;;;;16.75;100.00;102205.59;5078012;28;45220;-81
2022/05/27 05:49:41;;;;;;;;;17.25;13.50;;;;;16.74;100.00;102206.44;5080729;28;46095;-81
2022/05/27 05:52:07;;;;;;;;;17.50;13.25;;;;;16.74;100.00;102207.31;5083684;27;45330;-81
2022/05/27 05:54:33;;;;;;;;;17.50;14.75;;;;;16.75;100.00;102205.59;5081330;28;45370;-81
2022/05/27 05:57:01;;;;;;;;;12.75;12.25;;;;;16.74;100.00;102202.06;5077700;28;45587;-81
2022/05/27 05:59:31;;;;;;;;;15.25;13.75;;;;;16.79;100.00;102211.03;5077177;28;46517;-81
2022/05/27 06:01:57;;;;;;;;;16.75;14.75;;;;;16.78;100.00;102219.69;5077046;28;45404;-81
2022/05/27 06:04:23;;;;;;;;;15.75;15.75;;;;;16.75;100.00;102216.94;5076830;28;45306;-81
2022/05/27 06:06:49;;;;;;;;;14.75;13.50;;;;;16.73;100.00;102207.25;5059052;28;45631;-80
2022/05/27 06:09:14;;;;;;;;;14.75;12.25;;;;;16.74;100.00;102212.53;5076604;27;45928;-82
2022/05/27 06:11:40;;;;;;;;;11.25;10.25;;;;;16.76;100.00;102212.63;5060882;28;45439;-80
2022/05/27 06:14:06;;;;;;;;;12.75;11.00;;;;;16.77;100.00;102220.53;5078164;28;45457;-80
2022/05/27 06:16:35;;;;;;;;;8.00;6.00;;;;;16.76;100.00;102210.88;5076928;28;45379;-80
2022/05/27 06:19:00;;;;;;;;;7.75;6.00;;;;;16.72;100.00;102211.59;5061189;28;45971;-80
2022/05/27 06:21:27;;;;;;;;;11.00;9.50;;;;;16.70;100.00;102206.28;5078899;28;45498;-80
2022/05/27 06:23:52;;;;;;;;;13.25;9.25;;;;;16.72;100.00;102211.59;5076853;28;45419;-80
2022/05/27 06:26:18;;;;;;;;;7.25;6.00;;;;;16.74;100.00;102204.69;5076395;28;45497;-81
2022/05/27 06:34:32;;;;;;;;;8.50;7.25;;;;;16.74;100.00;102216.91;4994662;28;45409;-80
2022/05/27 06:37:04;;;;;;;;;8.75;6.75;;;;;16.77;100.00;102227.50;5031780;28;45390;-83
2022/05/27 06:39:32;;;;;;;;;11.75;7.00;;;;;16.78;100.00;102224.06;5073907;28;45457;-85
2022/05/27 06:41:58;;;;;;;;;7.25;6.00;;;;;16.81;100.00;102230.31;5075438;28;45429;-85
2022/05/27 06:44:23;;;;;;;;;5.50;5.50;;;;;16.77;100.00;102225.75;5076937;28;45326;-81
2022/05/27 06:46:51;;;;;;;;;10.00;7.25;;;;;16.70;100.00;102219.38;5081112;27;45421;-84
2022/05/27 06:49:18;;;;;;;;;8.75;5.75;;;;;16.70;100.00;102214.13;5080205;28;45553;-82
2022/05/27 06:51:45;;;;;;;;;7.25;6.25;;;;;16.81;100.00;102225.06;5058163;28;45839;-83
2022/05/27 06:54:10;;;;;;;;;10.50;9.00;;;;;16.87;100.00;102222.69;5077125;28;45416;-80
2022/05/27 06:56:38;;;;;;;;;8.25;7.75;;;;;16.89;100.00;102220.16;5078371;28;45356;-85
2022/05/27 06:59:06;;;;;;;;;10.75;10.00;;;;;16.98;100.00;102215.34;5054664;28;46743;-82
2022/05/27 07:01:32;;;;;;;;;6.50;5.75;;;;;17.04;100.00;102211.16;5057529;28;45307;-80
2022/05/27 07:03:58;;;;;;;;;11.50;9.25;;;;;17.08;100.00;102197.38;5060353;28;45220;-85
2022/05/27 07:06:27;;;;;;;;;11.00;8.00;;;;;17.18;100.00;102203.03;5068356;28;45635;-81
2022/05/27 07:08:53;;;;;;;;;8.25;8.25;;;;;17.26;100.00;102205.97;5075647;28;45873;-79
2022/05/27 07:11:18;;;;;;;;;13.00;11.50;;;;;17.34;100.00;102208.91;5076391;28;45428;-83
2022/05/27 07:13:44;;;;;;;;;8.50;8.00;;;;;17.43;100.00;102214.50;5075585;28;45426;-78
2022/05/27 07:16:10;;;;;;;;;7.00;7.00;;;;;17.47;100.00;102210.25;5078916;28;45516;-81
2022/05/27 07:18:35;;;;;;;;;12.25;10.50;;;;;17.51;100.00;102206.94;5080050;27;45423;-81
2022/05/27 07:21:06;;;;;;;;;12.00;11.00;;;;;17.59;100.00;102220.34;5074986;28;45395;-81
2022/05/27 07:23:33;;;;;;;;;12.75;10.75;;;;;17.57;100.00;102212.41;5075921;28;45492;-81
2022/05/27 07:25:59;;;;;;;;;9.50;8.00;;;;;17.58;100.00;102210.69;5075144;28;45440;-81
2022/05/27 07:28:26;;;;;;;;;11.25;10.00;;;;;17.67;100.00;102217.97;5084620;27;46061;-81
2022/05/27 07:30:53;;;;;;;;;11.50;8.00;;;;;17.74;100.00;102227.88;5075992;27;45832;-82
2022/05/27 07:33:20;;;;;;;;;11.00;7.50;;;;;17.77;100.00;102212.25;5076147;28;45217;-82
2022/05/27 07:35:46;;;;;;;;;12.75;11.25;;;;;17.78;100.00;102224.53;5075161;28;46508;-82
2022/05/27 07:38:12;;;;;;;;;10.00;8.00;;;;;17.77;100.00;102227.97;5075282;28;45524;-82
2022/05/27 07:40:39;;;;;;;;;12.50;9.75;;;;;17.78;100.00;102228.06;5075861;28;45777;-82
2022/05/27 07:43:08;;;;;;;;;10.00;7.75;;;;;17.81;100.00;102213.28;5079156;28;45402;-82
2022/05/27 07:45:37;;;;;;;;;11.50;11.00;;;;;17.83;100.00;102214.22;5082953;28;45296;-82
2022/05/27 07:48:04;;;;;;;;;8.50;8.00;;;;;17.84;100.00;102219.53;5077042;28;46237;-82
2022/05/27 07:50:30;;;;;;;;;11.00;7.50;;;;;17.85;100.00;102220.41;5075691;27;45845;-84
2022/05/27 07:52:56;;;;;;;;;12.00;10.00;;;;;17.83;100.00;102230.84;5076476;28;45519;-83
2022/05/27 07:55:22;;;;;;;;;8.50;8.25;;;;;17.78;100.00;102232.38;5075801;28;45207;-81
2022/05/27 07:57:48;;;;;;;;;8.00;7.25;;;;;17.75;100.00;102217.44;5076462;27;45526;-81
2022/05/27 08:00:20;;;;;;;;;9.75;6.00;;;;;17.72;100.00;102219.94;5079594;28;45400;-81
2022/05/27 08:02:47;;;;;;;;;10.50;9.75;;;;;17.64;100.00;102218.75;5060886;28;45422;-81
2022/05/27 08:05:17;;;;;;;;;8.00;6.25;;;;;17.64;100.00;102206.59;5061513;28;45521;-81
2022/05/27 08:07:43;;;;;;;;;10.50;9.50;;;;;17.74;100.00;102218.28;5078980;28;45462;-81
2022/05/27 08:10:10;;;;;;;;;8.25;8.00;;;;;17.79;100.00;102216.75;5082953;28;45427;-80
2022/05/27 08:12:36;;;;;;;;;8.50;8.50;;;;;17.81;100.00;102219.41;5086078;28;45327;-82
2022/05/27 08:15:03;;;;;;;;;6.50;5.00;;;;;17.77;100.00;102220.13;5080604;27;45215;-81
2022/05/27 08:17:28;;;;;;;;;12.50;7.75;;;;;17.76;100.00;102221.84;5078405;28;46402;-80
2022/05/27 08:19:54;;;;;;;;;10.75;6.50;;;;;17.72;100.00;102219.06;5078437;28;45400;-80
2022/05/27 08:22:20;;;;;;;;;8.00;8.00;;;;;17.69;100.00;102224.19;5078810;28;45462;-83
2022/05/27 08:24:45;;;;;;;;;7.25;7.25;;;;;17.71;100.00;102230.38;5078960;28;45488;-80
2022/05/27 08:27:11;;;;;;;;;6.75;5.75;;;;;17.68;100.00;102220.69;5077676;28;45953;-80
2022/05/27 08:29:37;;;;;;;;;7.25;5.25;;;;;17.68;100.00;102225.91;5078780;28;45415;-82
2022/05/27 08:32:04;;;;;;;;;6.25;4.50;;;;;17.64;100.00;102224.00;5077897;28;45459;-83
2022/05/27 08:40:09;;;;;;;;;5.50;5.25;;;;;17.60;100.00;102229.97;5084856;28;45224;-83
2022/05/27 08:42:54;;;;;;;;;5.00;5.00;;;;;17.66;100.00;102229.28;5084142;27;45442;-82
2022/05/27 08:45:47;;;;;;;;;4.00;4.00;;;;;17.68;100.00;102220.69;5079796;28;45397;-83
2022/05/27 08:48:14;;;;;;;;;5.50;4.50;;;;;17.72;100.00;102219.94;5078635;28;45538;-82
2022/05/27 08:50:51;;;;;;;;;7.25;4.75;;;;;17.77;100.00;102230.59;5059432;28;45452;-82
2022/05/27 08:53:38;;;;;;;;;6.50;5.00;;;;;17.77;100.00;102227.97;5059959;28;45341;-83
2022/05/27 09:01:45;;;;;;;;;6.00;5.25;;;;;17.69;100.00;102229.41;5077162;27;45472;-83
2022/05/27 09:04:21;;;;;;;;;7.00;5.75;;;;;17.70;100.00;102228.59;5078236;28;45299;-82
2022/05/27 09:07:02;;;;;;;;;4.50;4.00;;;;;17.68;100.00;102227.63;5081108;28;45587;-85
2022/05/27 09:09:30;;;;;;;;;3.50;3.50;;;;;17.68;100.00;102231.16;5083021;28;46001;-85
2022/05/27 09:12:32;;;;;;;;;5.50;4.25;;;;;17.70;100.00;102223.34;5089032;27;45656;-87
2022/05/27 09:15:07;;;;;;;;;13.00;6.75;;;;;17.76;100.00;102223.59;5079812;27;45262;-87
2022/05/27 09:17:49;;;;;;;;;5.00;4.75;;;;;17.83;100.00;102225.59;5080825;28;45374;-89
2022/05/27 09:20:26;;;;;;;;;4.50;4.50;;;;;17.88;100.00;102233.63;5057164;28;45728;-84
2022/05/27 09:23:29;;;;;;;;;6.00;5.25;;;;;17.93;100.00;102229.44;5068768;28;45749;-88
2022/05/27 09:26:04;;;;;;;;;4.75;4.50;;;;;17.94;100.00;102231.22;5078754;27;45400;-86
2022/05/27 09:28:48;;;;;;;;;3.50;3.50;;;;;17.99;100.00;102229.72;5080428;28;45404;-83
2022/05/27 09:31:20;;;;;;;;;5.25;5.00;;;;;18.03;100.00;102230.72;5077612;28;45899;-84
2022/05/27 09:33:47;;;;;;;;;5.00;4.00;;;;;18.09;100.00;102226.59;5077996;28;45376;-82
2022/05/27 09:36:19;;;;;;;;;8.75;7.25;;;;;18.17;100.00;102223.34;5083060;28;45372;-83
2022/05/27 09:38:55;;;;;;;;;4.75;4.75;;;;;18.22;100.00;102220.06;5082355;28;45287;-84
2022/05/27 09:41:40;;;;;;;;;5.75;5.00;;;;;18.27;100.00;102222.84;5078756;27;46235;-84
2022/05/27 09:44:14;;;;;;;;;5.00;4.00;;;;;18.34;100.00;102227.50;5077957;28;45816;-83
2022/05/27 09:46:40;;;;;;;;;4.25;4.00;;;;;18.42;100.00;102230.34;5077856;28;45280;-83
2022/05/27 09:49:06;;;;;;;;;7.25;4.25;;;;;18.49;100.00;102232.38;5077945;28;45467;-83
2022/05/27 09:51:32;;;;;;;;;5.00;4.00;;;;;18.53;100.00;102229.00;5076993;28;46534;-85
2022/05/27 09:54:24;;;;;;;;;3.75;3.75;;;;;18.54;100.00;102229.91;5077461;28;45370;-84
2022/05/27 09:57:04;;;;;;;;;5.75;5.00;;;;;18.59;100.00;102225.69;5076687;27;45206;-84
2022/05/27 10:00:00;;;;;;;;;6.25;4.75;;;;;18.69;100.00;102224.31;5078129;28;45421;-85
2022/05/27 10:02:32;;;;;;;;;5.75;5.25;;;;;18.77;100.00;102221.94;5051197;28;45802;-85
2022/05/27 10:05:09;;;;;;;;;5.75;3.75;;;;;18.81;100.00;102214.22;5083533;28;45753;-84
2022/05/27 10:07:44;;;;;;;;;7.75;4.00;;;;;18.96;100.00;102213.88;5080715;28;45287;-85
2022/05/27 10:10:26;;;;;;;;;7.00;7.00;;;;;19.12;100.00;102210.00;5078323;28;45339;-85
2022/05/27 10:12:53;;;;;;;;;6.75;6.50;;;;;19.26;100.00;102207.81;5077630;27;45477;-85
2022/05/27 10:15:32;;;;;;;;;4.50;4.50;;;;;19.33;100.00;102204.50;5077215;28;45379;-84
2022/05/27 10:18:18;;;;;;;;;4.25;4.25;;;;;19.53;100.00;102205.97;5077111;28;45229;-84
2022/05/27 10:20:49;;;;;;;;;6.75;6.50;;;;;19.64;100.00;102199.31;5077826;27;45466;-88
2022/05/27 10:23:24;;;;;;;;;5.75;5.25;;;;;19.72;100.00;102210.06;5078418;27;45310;-87
2022/05/27 10:25:50;;;;;;;;;6.50;5.50;;;;;19.69;100.00;102209.94;5086994;28;45307;-88
2022/05/27 10:28:31;;;;;;;;;6.50;6.00;;;;;19.63;100.00;102200.16;5079851;28;45436;-88
2022/05/27 10:31:01;;;;;;;;;5.00;5.00;;;;;19.60;100.00;102206.22;5082413;27;45749;-91
2022/05/27 10:33:40;;;;;;;;;7.50;6.25;;;;;19.59;100.00;102207.06;5086751;27;46450;-86
2022/05/27 10:36:33;;;;;;;;;7.75;7.75;;;;;19.63;100.00;102215.91;5087708;28;45268;-93
2022/05/27 10:39:05;;;;;;;;;12.00;7.00;;;;;19.62;100.00;102208.88;5069869;28;45272;-88
2022/05/27 10:42:26;;;;;;;;;7.25;5.75;;;;;19.70;100.00;102203.84;5079750;27;45533;-85
2022/05/27 10:45:16;;;;;;;;;5.25;3.50;;;;;19.80;100.00;102211.16;5067356;28;45435;-81
2022/05/27 10:47:56;;;;;;;;;7.25;6.50;;;;;19.86;98.93;102207.84;5076136;28;45284;-80
2022/05/27 10:50:31;;;;;;;;;6.50;6.50;;;;;19.78;99.00;102204.97;5076796;28;45441;-86
2022/05/27 10:53:23;;;;;;;;;5.25;4.75;;;;;19.86;98.55;102207.84;5052873;28;46086;-82
2022/05/27 10:55:48;;;;;;;;;7.50;6.50;;;;;19.99;98.01;102201.19;5075604;28;45577;-85
2022/05/27 11:02:04;;;;;;;;;3.00;2.00;;;;;20.12;95.87;102205.09;5082433;28;45469;-88
2022/05/27 11:04:42;;;;;;;;;7.00;6.00;;;;;20.00;96.41;102200.34;5058727;28;45342;-85
2022/05/27 11:07:31;;;;;;;;;8.50;6.00;;;;;19.92;96.89;102206.28;5058904;28;45904;-83
2022/05/27 11:10:38;;;;;;;;;6.00;6.00;;;;;19.92;97.92;102206.28;5076819;28;45473;-82
2022/05/27 11:16:06;;;;;;;;;5.00;4.00;;;;;20.21;97.27;102203.56;5079318;27;45158;-87
2022/05/27 11:18:40;;;;;;;;;7.00;6.00;;;;;20.36;95.77;102195.19;5077875;28;45359;-86
2022/05/27 11:21:14;;;;;;;;;8.75;8.50;;;;;20.48;93.46;102205.19;5076734;28;45260;-86
2022/05/27 11:24:03;;;;;;;;;6.50;6.00;;;;;20.55;92.70;102193.06;5076753;28;45359;-86
2022/05/27 11:26:51;;;;;;;;;9.00;7.00;;;;;20.58;91.42;102201.03;5078996;28;45422;-81
2022/05/27 11:29:16;;;;;;;;;5.25;5.25;;;;;20.62;90.32;102191.50;5080267;28;46510;-81
2022/05/27 11:31:55;;;;;;;;;7.50;7.00;;;;;20.55;91.60;102185.19;5079663;27;45386;-83
2022/05/27 11:34:44;;;;;;;;;6.00;6.00;;;;;20.56;90.53;102184.34;5081567;27;45307;-84
2022/05/27 11:37:42;;;;;;;;;6.25;5.75;;;;;20.53;90.75;102186.88;5062008;28;45396;-84
2022/05/27 11:40:32;;;;;;;;;6.25;5.25;;;;;20.55;90.30;102179.91;5079766;27;45422;-84
2022/05/27 11:43:22;;;;;;;;;7.25;6.00;;;;;20.59;89.35;102184.38;5079782;28;45678;-85
2022/05/27 11:46:16;;;;;;;;;6.00;5.75;;;;;20.53;89.85;102173.72;5079557;27;45261;-86
2022/05/27 11:48:51;;;;;;;;;7.00;5.00;;;;;20.42;89.85;102189.22;5057088;27;45449;-85
2022/05/27 11:51:48;;;;;;;;;5.00;5.00;;;;;20.22;91.17;102181.69;5078758;28;45368;-84
2022/05/27 11:54:29;;;;;;;;;5.75;5.75;;;;;20.22;92.14;102178.19;5014467;28;45349;-84
2022/05/27 11:57:37;;;;;;;;;6.25;5.00;;;;;20.30;92.64;102181.03;5063914;28;45477;-85
2022/05/27 12:00:07;;;;;;;;;5.25;5.00;;;;;20.26;91.66;102177.41;5038817;28;45284;-83
2022/05/27 12:02:55;;;;;;;;;4.25;4.25;;;;;20.20;92.80;102175.50;5055293;28;46666;-84
2022/05/27 12:05:31;;;;;;;;;5.75;5.00;;;;;20.15;94.54;102169.25;5078448;28;45783;-85
2022/05/27 12:08:13;;;;;;;;;4.75;4.00;;;;;20.18;95.21;102173.69;5081145;27;45593;-85
2022/05/27 12:10:47;;;;;;;;;5.00;3.75;;;;;20.21;95.50;102174.66;5078224;28;45374;-85
2022/05/27 12:13:51;;;;;;;;;5.75;4.50;;;;;20.24;95.50;102185.25;5079924;28;45415;-84